createdAt,value
2018-03-04T00:00:58.072Z,34.30
2018-03-04T00:03:26.417Z,33.53
2018-03-04T00:05:55.552Z,33.53
2018-03-04T00:08:24.262Z,32.97
2018-03-04T00:10:52.600Z,32.17
2018-03-04T00:13:20.926Z,36.50
2018-03-04T00:15:49.305Z,35.43
2018-03-04T00:18:17.660Z,37.30
2018-03-04T00:20:46.106Z,33.80
2018-03-04T00:23:14.496Z,36.73
2018-03-04T00:25:42.853Z,35.30
2018-03-04T00:28:11.268Z,33.03
2018-03-04T00:30:39.661Z,33.73
2018-03-04T00:33:08.057Z,30.93
2018-03-04T00:35:36.455Z,34.90
2018-03-04T00:38:04.786Z,34.93
2018-03-04T00:40:33.201Z,37.60
2018-03-04T00:43:01.585Z,33.77
2018-03-04T00:45:29.957Z,33.40
2018-03-04T00:47:58.326Z,33.93
2018-03-04T00:50:26.681Z,33.87
2018-03-04T00:52:55.028Z,35.00
2018-03-04T00:55:23.397Z,35.57
2018-03-04T00:57:51.989Z,35.73
2018-03-04T01:00:20.329Z,33.97
2018-03-04T01:02:48.746Z,35.70
2018-03-04T01:05:17.885Z,38.30
2018-03-04T01:07:46.282Z,36.57
2018-03-04T01:10:14.642Z,35.90
2018-03-04T01:12:43.055Z,36.40
2018-03-04T01:15:11.445Z,36.70
2018-03-04T01:17:39.816Z,36.20
2018-03-04T01:20:08.178Z,36.27
2018-03-04T01:22:37.364Z,36.17
2018-03-04T01:25:05.699Z,34.63
2018-03-04T01:27:34.032Z,37.00
2018-03-04T01:30:03.197Z,38.87
2018-03-04T01:32:31.532Z,38.73
2018-03-04T01:34:59.865Z,41.87
2018-03-04T01:37:28.265Z,38.60
2018-03-04T01:39:57.372Z,40.70
2018-03-04T01:42:26.473Z,40.40
2018-03-04T01:44:54.950Z,39.43
2018-03-04T01:47:23.290Z,38.90
2018-03-04T01:49:51.629Z,39.37
2018-03-04T01:52:19.998Z,39.53
2018-03-04T01:54:48.362Z,41.23
2018-03-04T01:57:17.492Z,41.00
2018-03-04T01:59:45.832Z,42.10
2018-03-04T02:02:14.941Z,38.83
2018-03-04T02:04:43.325Z,40.33
2018-03-04T02:07:11.694Z,34.63
2018-03-04T02:09:40.100Z,37.57
2018-03-04T02:12:08.473Z,41.60
2018-03-04T02:14:36.911Z,41.83
2018-03-04T02:17:06.045Z,40.20
2018-03-04T02:19:34.405Z,41.97
2018-03-04T02:22:02.737Z,40.77
2018-03-04T02:24:31.135Z,40.13
2018-03-04T02:27:00.373Z,42.13
2018-03-04T02:29:28.766Z,40.23
2018-03-04T02:31:57.154Z,41.20
2018-03-04T02:34:25.594Z,37.97
2018-03-04T02:36:54.703Z,42.67
2018-03-04T02:39:23.057Z,38.53
2018-03-04T02:41:51.452Z,40.10
2018-03-04T02:44:19.831Z,38.60
2018-03-04T02:46:48.207Z,42.10
2018-03-04T02:49:16.574Z,40.37
2018-03-04T02:51:44.935Z,40.87
2018-03-04T02:54:13.872Z,42.50
2018-03-04T02:56:42.282Z,40.53
2018-03-04T02:59:11.418Z,37.80
2018-03-04T03:01:39.762Z,42.53
2018-03-04T03:04:08.111Z,42.30
2018-03-04T03:06:36.454Z,43.57
2018-03-04T03:09:04.848Z,39.00
2018-03-04T03:11:39.079Z,41.03
2018-03-04T03:14:07.436Z,41.33
2018-03-04T03:16:35.805Z,43.93
2018-03-04T03:19:04.146Z,40.57
2018-03-04T03:21:33.253Z,42.43
2018-03-04T03:24:01.634Z,39.20
2018-03-04T03:26:30.740Z,41.17
2018-03-04T03:28:59.089Z,42.40
2018-03-04T03:31:27.465Z,39.80
2018-03-04T03:33:56.591Z,46.03
2018-03-04T03:36:24.941Z,43.33
2018-03-04T03:38:53.308Z,43.13
2018-03-04T03:41:22.424Z,40.77
2018-03-04T03:43:51.574Z,40.63
2018-03-04T03:46:19.908Z,40.43
2018-03-04T03:48:48.269Z,38.27
2018-03-04T03:51:16.615Z,39.17
2018-03-04T03:53:44.953Z,40.97
2018-03-04T03:56:13.334Z,42.20
2018-03-04T03:58:41.715Z,41.47
2018-03-04T04:01:10.057Z,42.27
2018-03-04T04:03:39.180Z,42.37
2018-03-04T04:06:07.549Z,46.00
2018-03-04T04:08:35.905Z,46.63
2018-03-04T04:11:05.007Z,41.23
2018-03-04T04:13:34.153Z,39.60
2018-03-04T04:16:02.476Z,41.80
2018-03-04T04:18:30.851Z,43.33
2018-03-04T04:20:59.991Z,46.37
2018-03-04T04:23:28.329Z,44.57
2018-03-04T04:25:57.438Z,41.10
2018-03-04T04:28:26.584Z,43.60
2018-03-04T04:30:55.225Z,42.47
2018-03-04T04:33:24.314Z,43.47
2018-03-04T04:35:52.679Z,49.30
2018-03-04T04:38:21.788Z,45.03
2018-03-04T04:40:50.171Z,50.37
2018-03-04T04:43:19.285Z,49.23
2018-03-04T04:45:47.632Z,43.70
2018-03-04T04:48:16.726Z,47.00
2018-03-04T04:50:45.829Z,47.00
2018-03-04T04:53:14.166Z,45.00
2018-03-04T04:55:42.537Z,42.30
2018-03-04T04:58:11.179Z,51.13
2018-03-04T05:00:39.530Z,48.10
2018-03-04T05:03:07.873Z,49.90
2018-03-04T05:05:37.016Z,48.60
2018-03-04T05:08:05.380Z,51.33
2018-03-04T05:10:34.500Z,47.97
2018-03-04T05:13:02.866Z,46.43
2018-03-04T05:15:31.234Z,45.90
2018-03-04T05:18:00.348Z,47.53
2018-03-04T05:20:28.721Z,47.00
2018-03-04T05:22:57.060Z,53.67
2018-03-04T05:25:25.412Z,53.57
2018-03-04T05:27:53.760Z,50.57
2018-03-04T05:30:22.096Z,53.00
2018-03-04T05:32:51.266Z,53.67
2018-03-04T05:35:19.605Z,48.57
2018-03-04T05:37:47.952Z,48.83
2018-03-04T05:40:16.313Z,49.10
2018-03-04T05:42:44.668Z,50.80
2018-03-04T05:45:13.019Z,51.97
2018-03-04T05:47:41.405Z,51.50
2018-03-04T05:50:09.773Z,54.90
2018-03-04T05:52:38.138Z,53.67
2018-03-04T05:55:06.537Z,49.67
2018-03-04T05:57:34.860Z,53.00
2018-03-04T06:00:03.196Z,50.37
2018-03-04T06:02:31.564Z,51.77
2018-03-04T06:04:59.954Z,46.00
2018-03-04T06:07:28.344Z,49.20
2018-03-04T06:09:56.700Z,50.10
2018-03-04T06:12:25.054Z,49.50
2018-03-04T06:14:54.165Z,49.97
2018-03-04T06:17:22.520Z,51.63
2018-03-04T06:19:51.649Z,46.53
2018-03-04T06:22:20.033Z,46.03
2018-03-04T06:24:48.406Z,49.27
2018-03-04T06:27:16.777Z,51.30
2018-03-04T06:29:45.136Z,46.70
2018-03-04T06:32:14.240Z,47.53
2018-03-04T06:34:42.605Z,51.63
2018-03-04T06:37:11.733Z,45.37
2018-03-04T06:39:40.078Z,49.13
2018-03-04T06:42:08.428Z,50.50
2018-03-04T06:44:36.806Z,46.77
2018-03-04T06:47:05.149Z,50.27
2018-03-04T06:49:33.479Z,52.53
2018-03-04T06:52:02.620Z,51.50
2018-03-04T06:54:30.988Z,49.07
2018-03-04T06:56:59.362Z,50.03
2018-03-04T06:59:27.696Z,46.27
2018-03-04T07:01:56.829Z,49.70
2018-03-04T07:04:25.234Z,50.00
2018-03-04T07:06:53.571Z,47.00
2018-03-04T07:09:22.001Z,51.87
2018-03-04T07:11:50.375Z,55.70
2018-03-04T07:14:18.755Z,52.80
2018-03-04T07:16:47.164Z,49.10
2018-03-04T07:19:15.502Z,49.10
2018-03-04T07:21:43.846Z,56.00
2018-03-04T07:24:12.323Z,48.37
2018-03-04T07:26:41.565Z,45.50
2018-03-04T07:29:09.939Z,49.83
2018-03-04T07:31:38.410Z,49.30
2018-03-04T07:34:06.771Z,46.40
2018-03-04T07:36:35.144Z,46.60
2018-03-04T07:39:03.547Z,52.93
2018-03-04T07:41:31.896Z,48.90
2018-03-04T07:44:01.031Z,50.17
2018-03-04T07:46:29.378Z,48.20
2018-03-04T07:48:57.777Z,48.97
2018-03-04T07:51:26.165Z,48.77
2018-03-04T07:53:54.547Z,46.73
2018-03-04T07:56:22.932Z,50.80
2018-03-04T07:58:51.268Z,51.00
2018-03-04T08:01:20.361Z,48.50
2018-03-04T08:03:48.746Z,49.57
2018-03-04T08:06:17.152Z,45.93
2018-03-04T08:08:45.485Z,45.17
2018-03-04T08:11:13.869Z,49.33
2018-03-04T08:13:42.457Z,51.83
2018-03-04T08:16:10.825Z,46.10
2018-03-04T08:18:39.208Z,49.80
2018-03-04T08:21:07.545Z,49.60
2018-03-04T08:23:36.689Z,47.03
2018-03-04T08:39:33.048Z,46.50
2018-03-04T08:42:02.976Z,43.30
2018-03-04T08:44:33.143Z,46.03
2018-03-04T08:47:03.071Z,48.30
2018-03-04T08:49:32.952Z,46.87
2018-03-04T08:52:02.831Z,45.33
2018-03-04T08:54:32.703Z,46.40
2018-03-04T08:57:02.592Z,48.67
2018-03-04T08:59:32.468Z,45.47
2018-03-04T09:02:02.372Z,47.77
2018-03-04T09:04:32.250Z,46.10
2018-03-04T09:07:02.129Z,48.43
2018-03-04T09:09:32.185Z,46.13
2018-03-04T09:12:02.068Z,49.30
2018-03-04T09:14:31.955Z,42.73
2018-03-04T09:17:01.816Z,47.33
2018-03-04T09:19:31.713Z,47.30
2018-03-04T09:22:01.597Z,48.83
2018-03-04T09:24:31.660Z,47.87
2018-03-04T09:27:01.536Z,48.27
2018-03-04T09:29:31.453Z,48.30
2018-03-04T09:32:01.373Z,47.50
2018-03-04T09:34:31.243Z,46.30
2018-03-04T09:37:01.165Z,48.80
2018-03-04T09:39:31.072Z,49.10
2018-03-04T09:42:00.966Z,47.13
2018-03-04T09:44:30.908Z,50.37
2018-03-04T09:47:00.777Z,48.10
2018-03-04T09:49:30.693Z,47.97
2018-03-04T09:52:00.544Z,46.60
2018-03-04T09:54:30.420Z,47.33
2018-03-04T09:57:00.308Z,47.20
2018-03-04T09:59:30.225Z,48.60
2018-03-04T10:02:00.087Z,45.97
2018-03-04T10:04:30.030Z,49.70
2018-03-04T10:06:59.895Z,50.10
2018-03-04T10:09:29.801Z,44.90
2018-03-04T10:11:59.672Z,46.60
2018-03-04T10:14:29.664Z,52.50
2018-03-04T10:16:59.588Z,52.57
2018-03-04T10:19:29.472Z,49.07
2018-03-04T10:21:59.375Z,47.60
2018-03-04T10:24:29.260Z,51.20
2018-03-04T10:26:59.180Z,48.73
2018-03-04T10:29:29.042Z,51.60
2018-03-04T10:31:59.583Z,47.67
2018-03-04T10:34:29.780Z,45.30
2018-03-04T10:36:59.682Z,49.80
2018-03-04T10:39:29.616Z,51.77
2018-03-04T10:41:59.545Z,49.97
2018-03-04T10:44:29.413Z,49.27
2018-03-04T10:46:59.288Z,47.40
2018-03-04T10:49:29.174Z,50.73
2018-03-04T10:51:59.046Z,54.27
2018-03-04T10:54:28.953Z,51.77
2018-03-04T10:56:58.814Z,52.73
2018-03-04T10:59:28.687Z,52.30
2018-03-04T11:02:04.472Z,52.87
2018-03-04T11:04:34.311Z,50.00
2018-03-04T11:07:04.239Z,52.87
2018-03-04T11:09:34.148Z,57.40
2018-03-04T11:12:04.048Z,54.10
2018-03-04T11:14:33.904Z,54.43
2018-03-04T11:17:03.812Z,52.30
2018-03-04T11:19:33.673Z,51.47
2018-03-04T11:22:03.578Z,51.17
2018-03-04T11:24:33.457Z,48.20
2018-03-04T11:27:03.344Z,53.97
2018-03-04T11:29:33.199Z,51.10
2018-03-04T11:32:03.080Z,55.50
2018-03-04T11:34:32.980Z,50.50
2018-03-04T11:37:02.873Z,55.30
2018-03-04T11:39:32.773Z,55.60
2018-03-04T11:42:02.633Z,51.10
2018-03-04T11:44:32.527Z,54.03
2018-03-04T11:47:02.393Z,53.07
2018-03-04T11:49:32.532Z,56.10
2018-03-04T11:52:02.428Z,56.07
2018-03-04T11:54:32.335Z,54.90
2018-03-04T11:57:02.210Z,55.50
2018-03-04T11:59:32.056Z,56.40
2018-03-04T12:02:01.953Z,54.27
2018-03-04T12:04:31.816Z,53.50
2018-03-04T12:07:01.701Z,55.57
2018-03-04T12:09:31.593Z,57.63
2018-03-04T12:12:01.478Z,56.97
2018-03-04T12:14:31.340Z,56.80
2018-03-04T12:17:01.220Z,58.50
2018-03-04T12:19:31.070Z,54.10
2018-03-04T12:22:01.032Z,92.80
2018-03-04T12:24:30.895Z,56.53
2018-03-04T12:27:00.808Z,60.83
2018-03-04T12:29:30.672Z,57.90
2018-03-04T12:32:00.875Z,60.27
2018-03-04T12:34:30.724Z,54.03
2018-03-04T12:37:00.588Z,57.37
2018-03-04T12:39:30.456Z,57.50
2018-03-04T12:42:00.348Z,57.40
2018-03-04T12:44:30.200Z,59.37
2018-03-04T12:47:00.088Z,56.57
2018-03-04T12:49:29.990Z,58.83
2018-03-04T12:51:59.899Z,57.83
2018-03-04T12:54:29.785Z,57.20
2018-03-04T12:56:59.660Z,54.80
2018-03-04T12:59:29.552Z,57.70
2018-03-04T13:01:59.428Z,56.70
2018-03-04T13:04:29.272Z,72.37
2018-03-04T13:06:59.171Z,62.93
2018-03-04T13:09:29.036Z,55.70
2018-03-04T13:11:58.938Z,57.07
2018-03-04T13:14:28.828Z,52.20
2018-03-04T13:16:58.705Z,53.07
2018-03-04T13:19:28.614Z,53.87
2018-03-04T13:21:58.476Z,55.00
2018-03-04T13:24:28.371Z,56.97
2018-03-04T13:26:58.281Z,52.50
2018-03-04T13:29:28.164Z,55.40
2018-03-04T13:31:58.081Z,59.53
2018-03-04T13:34:27.937Z,56.10
2018-03-04T13:36:57.847Z,58.73
2018-03-04T13:39:27.741Z,56.93
2018-03-04T13:41:57.585Z,58.83
2018-03-04T13:44:27.480Z,57.57
2018-03-04T13:46:57.481Z,60.70
2018-03-04T13:49:27.455Z,62.40
2018-03-04T13:51:57.343Z,61.73
2018-03-04T13:54:27.216Z,55.73
2018-03-04T13:56:57.100Z,51.20
2018-03-04T13:59:26.981Z,57.20
2018-03-04T14:01:56.856Z,59.97
2018-03-04T14:04:26.744Z,63.20
2018-03-04T14:06:56.643Z,59.47
2018-03-04T14:09:26.566Z,64.23
2018-03-04T14:11:56.420Z,61.07
2018-03-04T14:14:26.288Z,61.33
2018-03-04T14:16:56.172Z,61.00
2018-03-04T14:19:26.132Z,61.80
2018-03-04T14:21:56.004Z,61.53
2018-03-04T14:24:25.908Z,61.47
2018-03-04T14:26:55.772Z,56.33
2018-03-04T14:29:25.762Z,59.87
2018-03-04T14:31:55.731Z,57.47
2018-03-04T14:34:25.580Z,59.17
2018-03-04T14:36:55.506Z,55.83
2018-03-04T14:39:25.392Z,55.90
2018-03-04T14:41:55.279Z,59.83
2018-03-04T14:44:25.184Z,59.27
2018-03-04T14:46:55.044Z,51.37
2018-03-04T14:49:24.948Z,56.60
2018-03-04T14:51:54.812Z,58.90
2018-03-04T14:54:25.471Z,58.17
2018-03-04T14:56:55.413Z,59.20
2018-03-04T14:59:25.326Z,62.07
2018-03-04T15:01:55.177Z,56.43
2018-03-04T15:04:25.069Z,58.63
2018-03-04T15:06:54.940Z,56.70
2018-03-04T15:09:25.712Z,59.73
2018-03-04T15:11:55.560Z,61.80
2018-03-04T15:14:25.506Z,61.60
2018-03-04T15:16:55.362Z,53.57
2018-03-04T15:19:25.260Z,56.00
2018-03-04T15:21:55.111Z,56.30
2018-03-04T15:24:24.991Z,55.27
2018-03-04T15:26:54.880Z,52.67
2018-03-04T15:29:24.804Z,58.83
2018-03-04T15:31:54.688Z,53.57
2018-03-04T15:34:24.554Z,53.20
2018-03-04T15:36:54.473Z,52.63
2018-03-04T15:39:24.340Z,55.00
2018-03-04T15:41:54.241Z,50.57
2018-03-04T15:44:24.117Z,49.10
2018-03-04T15:46:54.014Z,48.57
2018-03-04T15:49:23.872Z,49.33
2018-03-04T15:51:53.894Z,53.17
2018-03-04T15:54:23.760Z,51.90
2018-03-04T15:56:53.628Z,50.53
2018-03-04T15:59:23.523Z,53.43
2018-03-04T16:01:53.464Z,51.17
2018-03-04T16:04:23.632Z,48.13
2018-03-04T16:06:53.517Z,51.70
2018-03-04T16:09:23.387Z,52.33
2018-03-04T16:11:53.550Z,48.60
2018-03-04T16:14:23.417Z,49.90
2018-03-04T16:16:53.378Z,47.83
2018-03-04T16:19:23.244Z,49.70
2018-03-04T16:21:53.136Z,54.80
2018-03-04T16:24:23.148Z,52.80
2018-03-04T16:26:53.006Z,52.30
2018-03-04T16:29:22.904Z,54.63
2018-03-04T16:31:52.940Z,53.43
2018-03-04T16:34:22.816Z,49.40
2018-03-04T16:36:52.734Z,51.70
2018-03-04T16:39:22.629Z,54.30
2018-03-04T16:41:52.546Z,50.57
2018-03-04T16:44:22.436Z,46.00
2018-03-04T16:46:52.320Z,49.73
2018-03-04T16:49:22.170Z,47.80
2018-03-04T16:51:52.082Z,46.37
2018-03-04T16:54:21.957Z,45.20
2018-03-04T16:56:51.840Z,43.97
2018-03-04T16:59:21.702Z,45.23
2018-03-04T17:01:51.617Z,45.90
2018-03-04T17:04:21.488Z,49.37
2018-03-04T17:06:51.372Z,52.13
2018-03-04T17:09:21.217Z,46.90
2018-03-04T17:11:51.140Z,48.97
2018-03-04T17:14:21.040Z,53.80
2018-03-04T17:16:50.955Z,52.80
2018-03-04T17:19:20.852Z,50.60
2018-03-04T17:21:50.755Z,49.67
2018-03-04T17:24:20.656Z,50.23
2018-03-04T17:26:50.532Z,52.27
2018-03-04T17:29:20.402Z,54.90
2018-03-04T17:31:50.327Z,53.87
2018-03-04T17:34:20.228Z,54.43
2018-03-04T17:36:50.139Z,54.07
2018-03-04T17:39:20.040Z,55.03
2018-03-04T17:41:49.896Z,54.37
2018-03-04T17:44:19.940Z,56.10
2018-03-04T17:46:49.801Z,54.67
2018-03-04T17:49:19.746Z,55.17
2018-03-04T17:51:49.620Z,60.27
2018-03-04T17:54:19.529Z,62.00
2018-03-04T17:56:49.417Z,55.00
2018-03-04T17:59:19.291Z,56.83
2018-03-04T18:01:49.186Z,55.97
2018-03-04T18:04:19.057Z,52.33
2018-03-04T18:06:48.977Z,51.77
2018-03-04T18:09:18.853Z,51.63
2018-03-04T18:11:48.745Z,50.93
2018-03-04T18:14:18.705Z,47.73
2018-03-04T18:16:48.704Z,52.53
2018-03-04T18:19:18.647Z,51.63
2018-03-04T18:21:48.534Z,50.63
2018-03-04T18:24:18.448Z,45.07
2018-03-04T18:26:48.349Z,50.53
2018-03-04T18:29:18.269Z,51.83
2018-03-04T18:31:48.147Z,51.27
2018-03-04T18:34:18.121Z,54.90
2018-03-04T18:36:48.001Z,52.27
2018-03-04T18:39:17.896Z,49.53
2018-03-04T18:41:47.835Z,49.03
2018-03-04T18:44:17.705Z,47.50
2018-03-04T18:46:47.830Z,50.40
2018-03-04T18:49:17.800Z,45.43
2018-03-04T18:51:47.726Z,50.10
2018-03-04T18:54:17.734Z,49.13
2018-03-04T18:56:48.715Z,46.80
2018-03-04T18:59:18.684Z,48.17
2018-03-04T19:01:48.708Z,48.97
2018-03-04T19:04:19.018Z,45.63
2018-03-04T19:06:48.900Z,49.23
2018-03-04T19:09:18.900Z,49.03
2018-03-04T19:11:48.768Z,48.40
2018-03-04T19:14:18.718Z,49.23
2018-03-04T19:16:48.604Z,50.53
2018-03-04T19:19:18.501Z,51.13
2018-03-04T19:21:48.548Z,49.03
2018-03-04T19:24:18.463Z,47.07
2018-03-04T19:26:48.328Z,46.30
2018-03-04T19:29:18.708Z,47.87
2018-03-04T19:31:48.608Z,44.43
2018-03-04T19:34:18.635Z,46.60
2018-03-04T19:36:48.504Z,46.20
2018-03-04T19:39:18.452Z,48.87
2018-03-04T19:41:48.449Z,44.67
2018-03-04T19:44:18.350Z,44.37
2018-03-04T19:46:48.212Z,45.30
2018-03-04T19:49:18.188Z,42.67
2018-03-04T19:51:48.036Z,42.80
2018-03-04T19:54:17.950Z,40.20
2018-03-04T19:56:47.817Z,43.83
2018-03-04T19:59:17.788Z,43.03
2018-03-04T20:01:47.766Z,41.20
2018-03-04T20:04:17.829Z,44.10
2018-03-04T20:06:48.339Z,43.83
2018-03-04T20:09:18.260Z,42.97
2018-03-04T20:11:48.137Z,43.00
2018-03-04T20:14:18.178Z,42.73
2018-03-04T20:16:48.113Z,48.90
2018-03-04T20:19:18.091Z,42.90
2018-03-04T20:21:48.031Z,42.97
2018-03-04T20:24:18.198Z,41.97
2018-03-04T20:26:48.151Z,42.93
2018-03-04T20:29:18.128Z,44.50
2018-03-04T20:31:49.481Z,43.83
2018-03-04T20:34:19.523Z,44.40
2018-03-04T20:36:49.448Z,44.17
2018-03-04T20:39:19.319Z,41.77
2018-03-04T20:41:49.251Z,44.53
2018-03-04T20:44:19.201Z,39.93
2018-03-04T20:46:49.085Z,41.63
2018-03-04T20:49:18.956Z,40.37
2018-03-04T20:51:48.897Z,46.47
2018-03-04T20:54:18.840Z,43.60
2018-03-04T20:56:48.764Z,42.30
2018-03-04T20:59:18.644Z,42.60
2018-03-04T21:01:48.539Z,42.60
2018-03-04T21:06:54.785Z,43.33
2018-03-04T21:09:24.680Z,46.90
2018-03-04T21:11:54.785Z,40.90
2018-03-04T21:14:24.647Z,43.80
2018-03-04T21:16:54.891Z,41.43
2018-03-04T21:19:24.747Z,41.77
2018-03-04T21:21:54.646Z,41.10
2018-03-04T21:24:24.507Z,44.17
2018-03-04T21:26:54.495Z,42.87
2018-03-04T21:29:24.390Z,44.07
2018-03-04T21:31:54.326Z,43.43
2018-03-04T21:34:24.230Z,38.37
2018-03-04T21:36:54.164Z,42.20
2018-03-04T21:39:24.059Z,39.27
2018-03-04T21:41:53.945Z,39.57
2018-03-04T21:44:23.845Z,44.80
2018-03-04T21:46:53.705Z,44.70
2018-03-04T21:49:23.598Z,43.57
2018-03-04T21:51:53.464Z,43.00
2018-03-04T21:54:23.357Z,42.03
2018-03-04T21:56:53.252Z,43.77
2018-03-04T21:59:23.133Z,45.63
2018-03-04T22:01:53.036Z,41.30
2018-03-04T22:04:22.958Z,42.93
2018-03-04T22:06:52.816Z,39.27
2018-03-04T22:09:22.741Z,44.23
2018-03-04T22:11:52.657Z,41.57
2018-03-04T22:14:22.573Z,45.17
2018-03-04T22:16:52.444Z,44.27
2018-03-04T22:19:22.333Z,45.83
2018-03-04T22:21:52.213Z,41.70
2018-03-04T22:24:22.106Z,42.80
2018-03-04T22:26:51.972Z,43.90
2018-03-04T22:29:21.896Z,42.37
2018-03-04T22:31:51.775Z,41.97
2018-03-04T22:34:21.672Z,40.83
2018-03-04T22:36:51.534Z,43.67
2018-03-04T22:39:21.432Z,43.00
2018-03-04T22:41:51.288Z,42.77
2018-03-04T22:44:21.237Z,41.70
2018-03-04T22:46:51.114Z,44.10
2018-03-04T22:49:21.028Z,44.90
2018-03-04T22:51:50.885Z,46.90
2018-03-04T22:54:20.796Z,42.23
2018-03-04T22:56:50.677Z,44.70
2018-03-04T22:59:20.565Z,39.43
2018-03-04T23:01:50.504Z,43.93
2018-03-04T23:04:20.373Z,41.33
2018-03-04T23:06:50.274Z,43.90
2018-03-04T23:09:20.140Z,44.47
2018-03-04T23:11:50.028Z,41.60
2018-03-04T23:14:19.900Z,44.20
2018-03-04T23:16:49.792Z,47.97
2018-03-04T23:19:19.676Z,46.60
2018-03-04T23:21:49.624Z,43.07
2018-03-04T23:24:19.499Z,42.70
2018-03-04T23:26:49.392Z,41.43
2018-03-04T23:29:19.263Z,42.90
2018-03-04T23:31:49.156Z,46.83
2018-03-04T23:34:19.029Z,41.97
2018-03-04T23:36:48.937Z,46.30
2018-03-04T23:39:18.784Z,49.97
2018-03-04T23:41:48.736Z,48.03
2018-03-04T23:44:18.599Z,46.30
2018-03-04T23:46:48.520Z,49.57
2018-03-04T23:49:18.380Z,47.00
2018-03-04T23:51:48.278Z,46.80
2018-03-04T23:54:18.132Z,45.70
2018-03-04T23:56:48.057Z,48.40
2018-03-04T23:59:17.935Z,48.17
